Time;durP1;ratioP1;P1;durP2;ratioP2;P2;SDS_P1;SDS_P2;PMS_P1;PMS_P2;Temp;Humidity;BMP_temperature;BMP_pressure;BME280_temperature;BME280_humidity;BME280_pressure;Samples;Min_cycle;Max_cycle;Signal;HPM_P1;HPM_P2
2022/12/25 00:01:42;;;;;;;34.45;14.30;;;6.40;99.90;;;;;;5101174;28;20404;-65
2022/12/25 00:04:08;;;;;;;39.63;14.18;;;6.40;99.90;;;;;;5132544;27;20035;-64
2022/12/25 00:06:33;;;;;;;40.38;13.45;;;6.50;99.90;;;;;;5129272;27;20540;-65
2022/12/25 00:08:59;;;;;;;44.25;13.80;;;6.40;99.90;;;;;;5112900;27;20038;-66
2022/12/25 00:11:25;;;;;;;36.90;14.20;;;6.50;99.90;;;;;;5132124;27;20039;-65
2022/12/25 00:13:50;;;;;;;36.90;12.95;;;6.50;99.90;;;;;;5132023;27;20034;-64
2022/12/25 00:16:19;;;;;;;42.83;14.73;;;6.50;99.90;;;;;;5110431;27;20107;-66
2022/12/25 00:18:46;;;;;;;35.83;12.65;;;6.50;99.90;;;;;;5129132;27;20110;-65
2022/12/25 00:21:13;;;;;;;32.22;13.25;;;6.50;99.90;;;;;;5112080;27;20035;-66
2022/12/25 00:23:38;;;;;;;35.22;13.27;;;6.40;99.90;;;;;;5120934;27;20508;-65
2022/12/25 00:26:07;;;;;;;38.30;13.38;;;6.40;99.90;;;;;;5128510;27;20063;-65
2022/12/25 00:28:33;;;;;;;36.50;12.55;;;6.40;99.90;;;;;;5124754;27;20031;-65
2022/12/25 00:31:02;;;;;;;37.58;13.20;;;6.40;99.90;;;;;;5108065;27;20106;-64
2022/12/25 00:33:28;;;;;;;42.55;13.23;;;6.40;99.90;;;;;;5110310;27;20393;-66
2022/12/25 00:36:00;;;;;;;37.05;13.55;;;6.40;99.90;;;;;;5129952;27;20031;-64
2022/12/25 00:38:26;;;;;;;41.72;13.30;;;6.40;99.90;;;;;;5124589;27;20067;-65
2022/12/25 00:40:52;;;;;;;43.40;13.30;;;6.40;99.90;;;;;;5117757;27;20120;-66
2022/12/25 00:43:18;;;;;;;38.88;13.30;;;6.40;99.90;;;;;;5129896;27;20118;-65
2022/12/25 00:45:52;;;;;;;36.13;12.80;;;6.40;99.90;;;;;;5105438;28;20062;-65
2022/12/25 00:48:18;;;;;;;35.17;12.60;;;6.40;99.90;;;;;;5113087;27;20370;-66
2022/12/25 00:50:43;;;;;;;40.50;13.48;;;6.40;99.90;;;;;;5112747;27;20054;-63
2022/12/25 00:53:09;;;;;;;45.42;13.07;;;6.40;99.90;;;;;;5115655;27;20074;-66
2022/12/25 00:55:34;;;;;;;36.00;13.18;;;6.40;99.90;;;;;;5118446;27;20031;-66
2022/12/25 00:58:00;;;;;;;45.60;13.60;;;6.50;99.90;;;;;;5129562;27;20031;-65
2022/12/25 01:00:25;;;;;;;37.33;13.35;;;6.50;99.90;;;;;;5102900;28;20489;-64
2022/12/25 01:02:51;;;;;;;40.20;13.32;;;6.50;99.90;;;;;;5110434;27;20130;-66
2022/12/25 01:05:17;;;;;;;39.30;13.70;;;6.50;99.90;;;;;;5127781;27;20089;-66
2022/12/25 01:07:42;;;;;;;49.83;13.45;;;6.50;99.90;;;;;;5129565;27;20035;-65
2022/12/25 01:10:21;;;;;;;45.67;12.48;;;6.50;99.90;;;;;;5123841;27;20401;-65
2022/12/25 01:12:48;;;;;;;45.15;13.90;;;6.50;99.90;;;;;;5101442;27;20492;-66
2022/12/25 01:15:14;;;;;;;36.13;12.15;;;7.10;99.90;;;;;;5104469;27;20048;-65
2022/12/25 01:17:41;;;;;;;51.00;13.85;;;6.60;99.90;;;;;;5130217;27;20405;-66
2022/12/25 01:20:07;;;;;;;41.85;12.75;;;6.60;99.90;;;;;;5125235;27;20031;-65
2022/12/25 01:22:32;;;;;;;43.97;12.93;;;6.60;99.90;;;;;;5123021;27;20035;-64
2022/12/25 01:24:58;;;;;;;41.83;13.07;;;6.60;99.90;;;;;;5096601;27;20066;-64
2022/12/25 01:27:24;;;;;;;44.28;13.48;;;6.70;99.90;;;;;;5131004;27;20093;-66
2022/12/25 01:29:49;;;;;;;39.75;12.98;;;6.70;99.90;;;;;;5094574;27;20082;-66
2022/12/25 01:32:15;;;;;;;37.35;12.38;;;6.70;99.90;;;;;;5113445;27;20036;-66
2022/12/25 01:34:41;;;;;;;45.25;14.45;;;6.70;99.90;;;;;;5122301;27;20035;-65
2022/12/25 01:37:06;;;;;;;39.40;12.73;;;6.80;99.90;;;;;;5119992;27;20030;-66
2022/12/25 01:39:33;;;;;;;45.65;13.43;;;6.80;99.90;;;;;;5131017;27;20034;-66
2022/12/25 01:41:59;;;;;;;42.20;13.57;;;6.80;99.90;;;;;;5120726;27;20445;-67
2022/12/25 01:44:36;;;;;;;41.33;13.40;;;6.80;99.90;;;;;;5124936;27;20140;-67
2022/12/25 01:47:06;;;;;;;45.42;12.60;;;6.80;99.90;;;;;;5126944;27;20553;-66
2022/12/25 01:49:38;;;;;;;41.92;12.93;;;6.90;99.90;;;;;;5127454;27;20047;-66
2022/12/25 01:52:14;;;;;;;43.60;12.98;;;6.90;99.90;;;;;;5120838;27;20031;-66
2022/12/25 01:54:49;;;;;;;43.38;12.82;;;6.90;99.90;;;;;;5125731;27;20066;-66
2022/12/25 01:57:23;;;;;;;45.55;14.68;;;6.90;99.90;;;;;;5125132;27;20047;-66
2022/12/25 01:59:49;;;;;;;48.88;13.88;;;7.00;99.90;;;;;;5127270;27;20603;-64
2022/12/25 02:02:15;;;;;;;48.10;13.98;;;7.00;99.90;;;;;;5131206;27;20121;-66
2022/12/25 02:04:50;;;;;;;41.22;13.80;;;7.00;99.90;;;;;;5125240;27;20043;-66
2022/12/25 02:07:21;;;;;;;33.45;12.65;;;7.00;99.90;;;;;;5104473;28;20047;-67
2022/12/25 02:09:47;;;;;;;41.63;12.45;;;7.10;99.90;;;;;;5115562;27;20043;-66
2022/12/25 02:12:21;;;;;;;43.30;13.25;;;7.10;99.90;;;;;;5126774;27;20486;-66
2022/12/25 02:14:49;;;;;;;44.97;13.30;;;7.10;99.90;;;;;;5124154;27;20062;-66
2022/12/25 02:17:17;;;;;;;40.40;12.65;;;7.10;99.90;;;;;;5124672;27;20047;-66
2022/12/25 02:20:07;;;;;;;38.38;12.95;;;7.20;99.90;;;;;;5114557;28;20127;-66
2022/12/25 02:23:01;;;;;;;38.42;12.27;;;7.20;99.90;;;;;;5093045;28;20101;-66
2022/12/25 02:25:54;;;;;;;40.17;12.10;;;7.20;99.90;;;;;;5126500;28;20103;-66
2022/12/25 02:28:41;;;;;;;43.80;12.43;;;7.20;99.90;;;;;;5107568;28;20043;-64
2022/12/25 02:31:16;;;;;;;40.63;12.70;;;7.20;99.90;;;;;;5099653;28;20100;-64
2022/12/25 02:34:03;;;;;;;39.25;12.52;;;7.20;99.90;;;;;;5123517;28;20042;-64
2022/12/25 02:36:56;;;;;;;42.50;11.95;;;7.30;99.90;;;;;;5109930;28;20044;-65
2022/12/25 02:39:58;;;;;;;42.30;11.93;;;7.30;99.90;;;;;;5089772;28;20054;-65
2022/12/25 03:07:37;;;;;;;43.38;12.15;;;7.50;99.90;;;;;;5113845;27;20062;-67
2022/12/25 03:13:02;;;;;;;39.40;12.63;;;7.50;99.90;;;;;;5129299;27;20106;-64
2022/12/25 03:18:16;;;;;;;30.25;11.35;;;7.50;99.90;;;;;;5127933;27;20077;-64
2022/12/25 03:29:00;;;;;;;32.35;11.88;;;7.40;99.90;;;;;;5117750;27;20409;-65
2022/12/25 03:31:50;;;;;;;35.13;11.05;;;7.40;99.90;;;;;;5126420;27;20039;-66
2022/12/25 03:41:20;;;;;;;42.90;11.60;;;7.40;99.90;;;;;;5103158;28;20180;-64
2022/12/25 04:36:15;;;;;;;36.28;14.73;;;7.80;99.90;;;;;;5126325;27;20044;-64
2022/12/25 04:38:42;;;;;;;43.47;14.93;;;7.80;99.90;;;;;;5116155;27;20182;-64
2022/12/25 04:41:09;;;;;;;34.72;14.82;;;7.80;99.90;;;;;;5131999;27;20092;-65
2022/12/25 04:43:35;;;;;;;42.78;15.55;;;7.90;99.90;;;;;;5132431;27;20073;-64
2022/12/25 04:46:02;;;;;;;41.33;15.23;;;7.90;99.90;;;;;;5102889;27;20077;-65
2022/12/25 04:48:31;;;;;;;38.08;15.05;;;7.90;99.90;;;;;;5126461;27;20103;-66
2022/12/25 04:50:57;;;;;;;36.65;15.02;;;7.90;99.90;;;;;;5119252;27;20080;-66
2022/12/25 04:53:22;;;;;;;47.35;15.63;;;8.00;99.90;;;;;;5132600;27;20114;-66
2022/12/25 04:55:48;;;;;;;36.72;15.32;;;8.00;99.90;;;;;;5101133;28;20400;-65
2022/12/25 04:58:14;;;;;;;38.65;14.80;;;8.00;99.90;;;;;;5118051;27;20039;-66
2022/12/25 05:00:39;;;;;;;39.65;15.63;;;8.00;99.90;;;;;;5119905;27;20043;-66
2022/12/25 05:03:05;;;;;;;40.42;15.00;;;8.00;99.90;;;;;;5104565;27;20031;-66
2022/12/25 05:05:31;;;;;;;40.70;15.18;;;8.00;99.90;;;;;;5105182;28;20482;-66
2022/12/25 05:07:56;;;;;;;37.90;15.85;;;8.00;99.90;;;;;;5129654;27;20495;-66
2022/12/25 05:10:22;;;;;;;40.25;16.08;;;8.10;99.90;;;;;;5132107;27;20050;-66
2022/12/25 05:12:48;;;;;;;42.88;16.58;;;8.10;99.90;;;;;;5100099;28;20066;-66
2022/12/25 05:15:14;;;;;;;47.88;16.73;;;8.10;99.90;;;;;;5111710;27;20043;-66
2022/12/25 05:17:39;;;;;;;46.65;16.55;;;8.10;99.90;;;;;;5105666;28;20040;-66
2022/12/25 05:20:05;;;;;;;43.47;17.67;;;8.10;99.90;;;;;;5117776;27;20035;-66
2022/12/25 05:22:31;;;;;;;41.30;16.50;;;8.20;99.90;;;;;;5125287;27;20035;-66
2022/12/25 05:24:57;;;;;;;44.58;17.40;;;8.20;99.90;;;;;;5128452;27;20122;-65
2022/12/25 05:27:22;;;;;;;46.28;17.55;;;8.20;99.90;;;;;;5130772;27;20039;-66
2022/12/25 05:29:48;;;;;;;44.35;16.80;;;8.20;99.90;;;;;;5124896;27;20080;-66
2022/12/25 05:32:13;;;;;;;42.85;17.58;;;8.20;99.90;;;;;;5121539;27;20074;-66
2022/12/25 05:34:39;;;;;;;45.53;16.85;;;8.30;99.90;;;;;;5109868;27;20091;-65
2022/12/25 05:37:05;;;;;;;41.85;17.23;;;8.30;99.90;;;;;;5114973;27;20436;-66
2022/12/25 05:39:30;;;;;;;56.72;17.88;;;8.30;99.90;;;;;;5118540;27;20039;-66
2022/12/25 05:41:56;;;;;;;44.45;16.80;;;8.30;99.90;;;;;;5121117;27;20502;-66
2022/12/25 05:44:21;;;;;;;43.03;17.55;;;8.30;99.90;;;;;;5125976;27;20044;-65
2022/12/25 05:46:50;;;;;;;35.95;16.92;;;8.30;99.90;;;;;;5121777;27;20123;-66
2022/12/25 05:49:16;;;;;;;47.53;18.50;;;8.30;99.90;;;;;;5118209;27;20509;-64
2022/12/25 05:51:42;;;;;;;44.25;18.13;;;8.40;99.90;;;;;;5117731;27;20035;-66
2022/12/25 05:54:08;;;;;;;49.08;17.92;;;8.30;99.90;;;;;;5108449;28;20080;-65
2022/12/25 05:56:33;;;;;;;41.45;16.08;;;8.30;99.90;;;;;;5125504;27;20031;-66
2022/12/25 05:58:59;;;;;;;42.90;17.48;;;8.40;99.90;;;;;;5112934;27;20388;-66
2022/12/25 06:01:26;;;;;;;39.28;16.30;;;8.40;99.90;;;;;;5127871;27;20036;-66
2022/12/25 06:03:52;;;;;;;41.40;16.33;;;8.40;99.90;;;;;;5103987;28;20092;-65
2022/12/25 06:06:18;;;;;;;42.47;16.45;;;8.40;99.90;;;;;;5120374;27;20439;-66
2022/12/25 06:08:44;;;;;;;41.45;16.83;;;8.40;99.90;;;;;;5107652;28;20383;-66
2022/12/25 06:11:12;;;;;;;36.55;15.20;;;8.40;99.90;;;;;;5105225;27;20545;-66
2022/12/25 06:13:37;;;;;;;38.63;15.73;;;8.50;99.90;;;;;;5130470;27;20038;-66
2022/12/25 06:16:08;;;;;;;35.47;15.45;;;8.40;99.90;;;;;;5128729;28;20031;-66
2022/12/25 06:18:39;;;;;;;47.33;15.90;;;8.40;99.90;;;;;;5107885;28;20051;-67
2022/12/25 06:21:07;;;;;;;36.35;15.65;;;8.40;99.90;;;;;;5119334;27;20047;-66
2022/12/25 06:23:32;;;;;;;37.30;14.65;;;8.40;99.90;;;;;;5082440;28;20070;-65
2022/12/25 06:25:59;;;;;;;35.75;14.65;;;8.40;99.90;;;;;;5109685;28;20070;-66
2022/12/25 06:28:24;;;;;;;28.55;13.93;;;8.40;99.90;;;;;;5116575;28;20314;-67
2022/12/25 06:30:50;;;;;;;36.90;14.25;;;8.40;99.90;;;;;;5116577;28;20122;-67
2022/12/25 06:33:15;;;;;;;30.20;14.52;;;8.40;99.90;;;;;;5119995;28;20027;-66
2022/12/25 06:35:41;;;;;;;35.78;14.45;;;8.40;99.90;;;;;;5109856;28;20546;-66
2022/12/25 06:38:07;;;;;;;35.60;14.98;;;8.40;99.90;;;;;;5114252;28;20035;-66
2022/12/25 06:40:33;;;;;;;34.70;14.77;;;8.40;99.90;;;;;;5107423;28;20303;-67
2022/12/25 06:42:59;;;;;;;34.25;14.55;;;8.40;99.90;;;;;;5121916;28;20095;-66
2022/12/25 06:45:24;;;;;;;27.20;13.52;;;8.40;99.90;;;;;;5130021;28;20410;-66
2022/12/25 06:47:50;;;;;;;34.22;13.57;;;8.30;99.90;;;;;;5121882;28;20482;-66
2022/12/25 06:50:16;;;;;;;31.58;13.52;;;8.40;99.90;;;;;;5126288;28;20040;-66
2022/12/25 06:52:41;;;;;;;33.85;13.57;;;8.30;99.90;;;;;;5117588;28;20038;-65
2022/12/25 06:55:07;;;;;;;34.40;13.40;;;8.30;99.90;;;;;;5115152;28;20032;-66
2022/12/25 06:57:33;;;;;;;30.45;12.45;;;8.30;99.90;;;;;;5087335;28;20046;-66
2022/12/25 06:59:58;;;;;;;29.75;12.43;;;8.30;99.90;;;;;;5114891;28;20031;-67
2022/12/25 07:02:24;;;;;;;29.13;12.30;;;8.30;99.90;;;;;;5109293;28;20039;-66
2022/12/25 07:04:51;;;;;;;31.48;12.07;;;8.30;99.90;;;;;;5122736;28;20134;-66
2022/12/25 07:07:16;;;;;;;27.23;12.23;;;8.30;99.90;;;;;;5104504;28;20402;-66
2022/12/25 07:09:42;;;;;;;24.27;12.10;;;8.30;99.90;;;;;;5109665;28;20035;-66
2022/12/25 07:12:18;;;;;;;32.13;11.85;;;8.30;99.90;;;;;;5130606;28;20031;-66
2022/12/25 07:14:47;;;;;;;27.83;11.60;;;8.30;99.90;;;;;;5109505;28;20038;-66
2022/12/25 07:17:14;;;;;;;25.13;10.40;;;8.30;99.90;;;;;;5130052;28;20032;-66
2022/12/25 07:19:40;;;;;;;29.05;10.82;;;8.30;99.90;;;;;;5126937;28;20046;-66
2022/12/25 07:22:06;;;;;;;24.13;10.75;;;8.30;99.90;;;;;;5103945;28;20043;-66
2022/12/25 07:24:31;;;;;;;19.45;10.00;;;8.30;99.90;;;;;;5122128;28;20046;-67
2022/12/25 07:26:57;;;;;;;25.42;10.57;;;8.40;99.90;;;;;;5101585;28;20042;-66
2022/12/25 07:29:22;;;;;;;28.27;10.43;;;8.30;99.90;;;;;;5128988;27;20377;-64
2022/12/25 07:31:48;;;;;;;20.10;10.13;;;8.30;99.90;;;;;;5129258;27;20065;-67
2022/12/25 07:34:16;;;;;;;27.50;10.40;;;8.40;99.90;;;;;;5108697;27;20038;-66
2022/12/25 07:36:41;;;;;;;26.58;10.95;;;8.50;99.90;;;;;;5120618;27;20393;-66
2022/12/25 07:39:10;;;;;;;20.67;9.23;;;8.40;99.90;;;;;;5120453;27;20039;-66
2022/12/25 07:41:35;;;;;;;27.92;10.00;;;8.40;99.90;;;;;;5128966;27;20031;-66
2022/12/25 07:44:01;;;;;;;25.95;10.35;;;8.40;99.90;;;;;;5129819;27;20389;-67
2022/12/25 07:46:27;;;;;;;23.38;9.70;;;8.30;99.90;;;;;;5119844;27;20043;-65
2022/12/25 07:48:53;;;;;;;18.88;9.13;;;8.40;99.90;;;;;;5131200;27;20023;-66
2022/12/25 07:51:19;;;;;;;27.75;9.43;;;8.30;99.90;;;;;;5132724;27;20093;-66
2022/12/25 07:53:45;;;;;;;20.85;9.70;;;8.30;99.90;;;;;;5130108;27;20039;-65
2022/12/25 07:56:18;;;;;;;21.30;8.55;;;8.30;99.90;;;;;;5111289;28;20478;-67
2022/12/25 07:58:44;;;;;;;20.85;9.40;;;8.30;99.90;;;;;;5121206;27;20047;-66
2022/12/25 08:01:13;;;;;;;21.63;9.00;;;8.30;99.90;;;;;;5122934;27;20036;-67
2022/12/25 08:03:39;;;;;;;21.83;8.95;;;8.30;99.90;;;;;;5124885;27;20063;-67
2022/12/25 08:06:08;;;;;;;21.35;9.07;;;8.30;99.90;;;;;;5130477;27;20489;-67
2022/12/25 08:08:35;;;;;;;24.30;8.93;;;8.30;99.90;;;;;;5107730;27;20051;-64
2022/12/25 08:11:00;;;;;;;22.42;9.23;;;8.30;99.90;;;;;;5100715;27;20046;-66
2022/12/25 08:13:29;;;;;;;18.75;10.05;;;8.30;99.90;;;;;;5107786;27;20035;-66
2022/12/25 08:15:59;;;;;;;21.83;9.45;;;8.30;99.90;;;;;;5121327;27;20093;-66
2022/12/25 08:18:25;;;;;;;24.48;9.68;;;8.30;99.90;;;;;;5118491;27;20070;-67
2022/12/25 08:20:51;;;;;;;19.13;8.85;;;8.30;99.90;;;;;;5124171;27;20066;-66
2022/12/25 08:23:17;;;;;;;19.08;7.90;;;8.30;99.90;;;;;;5110183;28;20403;-66
2022/12/25 08:25:42;;;;;;;17.70;8.45;;;8.30;99.90;;;;;;5125524;27;20035;-66
2022/12/25 08:28:08;;;;;;;19.35;8.98;;;8.30;99.90;;;;;;5132839;27;20400;-65
2022/12/25 08:30:33;;;;;;;21.92;9.32;;;8.20;99.90;;;;;;5131121;27;20043;-66
2022/12/25 08:32:59;;;;;;;21.25;9.40;;;8.30;99.90;;;;;;5114019;27;20063;-66
2022/12/25 08:35:25;;;;;;;22.73;9.75;;;8.30;99.90;;;;;;5094770;27;20035;-66
2022/12/25 08:37:51;;;;;;;18.75;9.75;;;8.20;99.90;;;;;;5131617;27;20114;-65
2022/12/25 08:40:16;;;;;;;18.23;8.98;;;8.30;99.90;;;;;;5131817;27;20091;-64
2022/12/25 08:42:42;;;;;;;21.75;9.40;;;8.30;99.90;;;;;;5132596;27;20451;-66
2022/12/25 08:45:08;;;;;;;23.75;9.02;;;8.30;99.90;;;;;;5108274;27;20043;-65
2022/12/25 08:47:34;;;;;;;19.00;9.43;;;8.30;99.90;;;;;;5122291;27;20044;-66
2022/12/25 08:50:00;;;;;;;21.15;8.77;;;8.30;99.90;;;;;;5130101;27;20398;-66
2022/12/25 08:52:27;;;;;;;21.20;9.60;;;8.30;99.90;;;;;;5126747;27;20032;-66
2022/12/25 08:54:53;;;;;;;25.65;8.73;;;8.30;99.90;;;;;;5121338;27;20068;-65
2022/12/25 08:57:18;;;;;;;23.08;10.05;;;8.30;99.90;;;;;;5123728;27;20319;-67
2022/12/25 08:59:44;;;;;;;23.75;9.45;;;8.30;99.90;;;;;;5120043;27;20169;-66
2022/12/25 09:02:11;;;;;;;22.88;8.75;;;8.30;99.90;;;;;;5117661;27;20379;-65
2022/12/25 09:04:37;;;;;;;19.60;9.15;;;8.40;99.90;;;;;;5118235;27;20082;-66
2022/12/25 09:07:02;;;;;;;23.35;8.48;;;8.40;99.90;;;;;;5108717;27;20041;-66
2022/12/25 09:09:28;;;;;;;21.65;8.38;;;8.40;99.90;;;;;;5117239;27;20157;-66
2022/12/25 09:11:54;;;;;;;19.10;9.13;;;8.40;99.90;;;;;;5128901;27;20057;-65
2022/12/25 09:14:20;;;;;;;19.05;8.80;;;8.40;99.90;;;;;;5109974;27;20040;-66
2022/12/25 09:16:48;;;;;;;23.63;8.32;;;8.40;99.90;;;;;;5129169;27;20114;-65
2022/12/25 09:19:13;;;;;;;21.15;8.88;;;8.40;99.90;;;;;;5129836;27;20031;-63
2022/12/25 09:21:39;;;;;;;20.23;9.60;;;8.40;99.90;;;;;;5122285;27;20135;-66
2022/12/25 09:24:05;;;;;;;22.95;9.05;;;8.40;99.90;;;;;;5128465;27;20602;-66
2022/12/25 09:26:30;;;;;;;15.27;8.60;;;8.40;99.90;;;;;;5129982;27;20459;-66
2022/12/25 09:28:56;;;;;;;18.45;8.55;;;8.50;99.90;;;;;;5127019;27;20481;-66
2022/12/25 09:31:22;;;;;;;20.02;8.15;;;8.50;99.90;;;;;;5126023;27;20086;-67
2022/12/25 09:33:49;;;;;;;15.95;8.35;;;8.50;99.90;;;;;;5116834;27;20067;-66
2022/12/25 09:36:14;;;;;;;20.48;8.15;;;8.50;99.90;;;;;;5127449;27;20038;-65
2022/12/25 09:38:40;;;;;;;19.15;8.65;;;8.50;99.90;;;;;;5127918;27;20031;-65
2022/12/25 09:41:18;;;;;;;19.95;8.70;;;8.60;99.90;;;;;;5120108;27;20031;-67
2022/12/25 09:43:53;;;;;;;16.70;8.18;;;8.60;99.90;;;;;;5127571;27;20114;-66
2022/12/25 09:46:23;;;;;;;18.70;7.13;;;8.50;99.90;;;;;;5103795;27;20031;-66
2022/12/25 09:49:14;;;;;;;19.20;7.50;;;8.60;99.90;;;;;;5128265;27;20039;-66
2022/12/25 09:51:42;;;;;;;18.73;7.80;;;8.60;99.90;;;;;;5119030;27;20458;-69
2022/12/25 09:54:23;;;;;;;19.13;7.32;;;8.70;99.90;;;;;;5125621;27;20069;-66
2022/12/25 09:56:49;;;;;;;18.70;7.32;;;8.70;99.90;;;;;;5100926;27;20067;-67
2022/12/25 09:59:23;;;;;;;14.05;7.32;;;8.70;99.90;;;;;;5128623;27;20108;-64
2022/12/25 10:02:00;;;;;;;15.98;7.43;;;8.70;99.90;;;;;;5107825;27;20485;-64
2022/12/25 10:05:05;;;;;;;20.60;7.75;;;8.70;99.90;;;;;;5086121;28;20078;-65
2022/12/25 10:07:45;;;;;;;16.83;7.53;;;8.70;99.90;;;;;;5078172;27;20133;-63
2022/12/25 10:10:28;;;;;;;17.20;7.57;;;8.70;99.90;;;;;;5121874;27;20424;-64
2022/12/25 10:13:28;;;;;;;13.90;6.90;;;8.70;99.90;;;;;;5125660;27;20487;-64
2022/12/25 10:16:20;;;;;;;15.75;7.43;;;8.70;99.90;;;;;;5093912;28;20046;-64
2022/12/25 10:19:03;;;;;;;15.80;7.18;;;8.70;99.90;;;;;;5112746;27;20066;-64
2022/12/25 10:21:30;;;;;;;11.35;6.95;;;8.70;99.90;;;;;;5106583;28;20320;-64
2022/12/25 10:24:34;;;;;;;17.27;7.32;;;8.70;99.90;;;;;;5098340;28;20119;-64
2022/12/25 10:27:03;;;;;;;20.10;7.72;;;8.70;99.90;;;;;;5128015;28;20039;-66
2022/12/25 10:29:34;;;;;;;18.02;8.05;;;8.70;99.90;;;;;;5126763;28;20038;-64
2022/12/25 10:31:59;;;;;;;17.17;7.68;;;8.70;99.90;;;;;;5128194;28;20035;-64
2022/12/25 10:34:27;;;;;;;14.82;7.80;;;8.80;99.90;;;;;;5119061;28;20032;-64
2022/12/25 10:36:53;;;;;;;14.52;7.03;;;8.80;99.90;;;;;;5098745;28;20035;-64
2022/12/25 10:39:23;;;;;;;18.73;7.72;;;8.70;99.90;;;;;;5103714;28;20040;-64
2022/12/25 10:42:03;;;;;;;14.15;7.03;;;8.80;99.90;;;;;;5128991;28;20043;-64
2022/12/25 10:44:29;;;;;;;15.45;7.03;;;8.80;99.90;;;;;;5124507;28;20481;-64
2022/12/25 10:46:59;;;;;;;19.35;6.82;;;8.80;99.90;;;;;;5119242;28;20031;-64
2022/12/25 10:49:33;;;;;;;15.93;6.63;;;8.80;99.90;;;;;;5124494;28;20517;-64
2022/12/25 10:52:00;;;;;;;18.55;6.50;;;8.90;99.90;;;;;;5117357;28;20039;-64
2022/12/25 10:54:34;;;;;;;13.98;6.50;;;8.90;99.90;;;;;;5116234;28;20088;-64
2022/12/25 10:57:15;;;;;;;15.52;5.97;;;8.90;99.90;;;;;;5104092;28;20035;-64
2022/12/25 10:59:49;;;;;;;11.25;5.90;;;8.90;99.90;;;;;;5103997;28;20100;-65
2022/12/25 11:02:35;;;;;;;15.27;5.93;;;8.90;99.90;;;;;;5096154;28;20050;-65
2022/12/25 11:05:05;;;;;;;13.75;5.82;;;8.90;99.90;;;;;;5103442;27;20043;-66
2022/12/25 11:07:33;;;;;;;16.15;6.13;;;8.90;99.90;;;;;;5127045;27;20056;-64
2022/12/25 11:10:02;;;;;;;15.02;6.25;;;8.90;99.90;;;;;;5120729;27;20035;-65
2022/12/25 11:12:33;;;;;;;13.73;6.15;;;8.90;99.90;;;;;;5108163;27;20035;-64
2022/12/25 11:15:26;;;;;;;12.25;5.78;;;8.90;99.90;;;;;;5101546;28;20042;-64
2022/12/25 11:17:51;;;;;;;13.98;6.35;;;8.90;99.90;;;;;;5105882;27;20040;-64
2022/12/25 11:20:19;;;;;;;14.27;5.93;;;8.90;99.90;;;;;;5134367;27;20537;-65
2022/12/25 11:22:46;;;;;;;14.13;6.60;;;9.00;99.90;;;;;;5127954;27;20035;-66
2022/12/25 11:25:19;;;;;;;13.13;5.90;;;8.90;99.90;;;;;;5120720;27;20023;-64
2022/12/25 11:28:03;;;;;;;12.13;5.88;;;9.00;99.90;;;;;;5111771;27;20100;-64
2022/12/25 11:30:31;;;;;;;15.65;6.82;;;9.00;99.90;;;;;;5125992;27;20557;-64
2022/12/25 11:33:05;;;;;;;15.85;6.80;;;9.00;99.90;;;;;;5115107;27;20524;-66
2022/12/25 11:35:36;;;;;;;17.48;7.35;;;9.00;99.90;;;;;;5110340;27;20043;-65
2022/12/25 11:38:02;;;;;;;14.35;7.57;;;9.10;99.90;;;;;;5123700;27;20534;-67
2022/12/25 11:40:39;;;;;;;19.70;7.90;;;9.10;99.90;;;;;;5126915;27;20080;-66
2022/12/25 11:43:20;;;;;;;16.60;7.95;;;9.10;99.90;;;;;;5126774;27;20667;-65
2022/12/25 11:45:51;;;;;;;20.75;7.70;;;9.10;99.90;;;;;;5104554;27;20427;-67
2022/12/25 11:48:24;;;;;;;18.38;8.10;;;9.10;99.90;;;;;;5125361;27;20043;-65
2022/12/25 11:50:59;;;;;;;15.85;7.47;;;9.20;99.90;;;;;;5121520;27;20043;-65
2022/12/25 11:53:40;;;;;;;17.40;7.47;;;9.10;99.90;;;;;;5122006;27;20043;-65
2022/12/25 11:56:09;;;;;;;20.40;8.32;;;9.10;99.90;;;;;;5130890;27;20023;-65
2022/12/25 11:59:03;;;;;;;19.35;7.72;;;9.10;99.90;;;;;;5128890;27;20027;-64
2022/12/25 12:01:50;;;;;;;20.00;7.60;;;9.10;99.90;;;;;;5106084;27;20062;-64
2022/12/25 12:04:27;;;;;;;16.13;7.57;;;9.20;99.90;;;;;;5119449;27;20061;-65
2022/12/25 12:07:16;;;;;;;19.58;8.55;;;9.20;99.90;;;;;;5124620;27;20028;-65
2022/12/25 12:09:51;;;;;;;19.30;8.25;;;9.20;99.90;;;;;;5084476;28;20052;-63
2022/12/25 12:12:25;;;;;;;16.40;8.40;;;9.20;99.90;;;;;;5094816;28;20381;-66
2022/12/25 12:15:14;;;;;;;15.82;8.40;;;9.20;99.90;;;;;;5123126;27;20031;-65
2022/12/25 12:17:40;;;;;;;21.08;8.65;;;9.10;99.90;;;;;;5112447;27;20415;-65
2022/12/25 12:20:22;;;;;;;19.23;8.50;;;9.20;99.90;;;;;;5129866;27;20032;-65
2022/12/25 12:22:49;;;;;;;13.67;7.87;;;9.20;99.90;;;;;;5106691;27;20088;-65
2022/12/25 12:25:17;;;;;;;17.83;7.88;;;9.20;99.90;;;;;;5127566;27;20031;-66
2022/12/25 12:27:43;;;;;;;16.27;7.82;;;9.10;99.90;;;;;;5127049;27;20497;-64
2022/12/25 12:30:25;;;;;;;19.02;8.20;;;9.20;99.90;;;;;;5121614;27;20126;-65
2022/12/25 12:32:53;;;;;;;;;;;9.10;99.90;;;;;;5115566;27;20038;-67
2022/12/25 12:35:28;;;;;;;15.80;8.30;;;9.20;99.90;;;;;;5124676;27;19969;-65
2022/12/25 12:38:04;;;;;;;19.88;9.32;;;9.20;99.90;;;;;;5124818;27;20035;-65
2022/12/25 12:40:38;;;;;;;21.90;10.40;;;9.20;99.90;;;;;;5114421;27;20061;-65
2022/12/25 12:43:06;;;;;;;17.50;9.10;;;9.20;99.90;;;;;;5128487;27;20275;-66
2022/12/25 12:45:36;;;;;;;19.63;10.43;;;9.20;99.90;;;;;;5129049;27;20038;-66
2022/12/25 12:48:14;;;;;;;21.10;9.65;;;9.20;99.90;;;;;;5130195;27;20042;-65
2022/12/25 12:50:40;;;;;;;19.05;9.63;;;9.20;99.90;;;;;;5121054;27;20154;-65
2022/12/25 12:53:37;;;;;;;15.85;9.48;;;9.20;99.90;;;;;;5125992;27;20035;-65
2022/12/25 12:56:15;;;;;;;20.77;10.52;;;9.20;99.90;;;;;;5101509;27;20039;-65
2022/12/25 12:58:49;;;;;;;21.27;10.70;;;9.10;99.90;;;;;;5128188;27;20390;-65
2022/12/25 13:01:28;;;;;;;24.85;10.57;;;9.20;99.90;;;;;;5106534;27;20498;-64
2022/12/25 13:04:12;;;;;;;19.55;10.23;;;9.10;99.90;;;;;;5108437;27;20043;-66
2022/12/25 13:06:43;;;;;;;21.88;10.57;;;9.10;99.90;;;;;;5105065;27;20047;-64
2022/12/25 13:09:26;;;;;;;22.85;10.77;;;9.10;99.90;;;;;;5107969;27;20050;-64
2022/12/25 13:11:52;;;;;;;24.95;10.77;;;9.10;99.90;;;;;;5125653;27;20035;-64
2022/12/25 13:14:20;;;;;;;23.40;11.52;;;9.10;99.90;;;;;;5108797;27;20223;-65
2022/12/25 13:16:48;;;;;;;25.30;11.32;;;9.10;99.90;;;;;;5109010;27;20035;-65
2022/12/25 13:19:22;;;;;;;22.05;11.52;;;9.10;99.90;;;;;;5125283;27;20039;-65
2022/12/25 13:21:59;;;;;;;21.35;11.52;;;9.10;99.90;;;;;;5126524;27;20039;-64
2022/12/25 13:24:35;;;;;;;26.45;12.30;;;9.10;99.90;;;;;;5108262;27;20400;-67
2022/12/25 13:27:23;;;;;;;25.58;13.68;;;9.10;99.90;;;;;;5109490;27;20062;-64
2022/12/25 13:29:48;;;;;;;27.58;12.75;;;9.00;99.90;;;;;;5127986;27;20039;-64
2022/12/25 13:32:25;;;;;;;25.05;12.90;;;9.10;99.90;;;;;;5128693;27;20366;-64
2022/12/25 13:34:51;;;;;;;27.35;13.50;;;9.10;99.90;;;;;;5109914;27;20039;-65
2022/12/25 13:37:20;;;;;;;24.25;13.77;;;9.00;99.90;;;;;;5129291;27;20156;-64
2022/12/25 13:39:50;;;;;;;28.70;15.25;;;9.00;99.90;;;;;;5129010;27;20088;-64
2022/12/25 13:42:18;;;;;;;28.73;16.23;;;9.10;99.90;;;;;;5106514;27;20073;-68
2022/12/25 13:44:45;;;;;;;31.40;16.15;;;9.10;99.90;;;;;;5095219;28;20055;-65
2022/12/25 13:47:19;;;;;;;37.45;21.92;;;9.00;99.90;;;;;;5111007;27;20039;-67
2022/12/25 13:49:46;;;;;;;33.22;21.20;;;9.10;99.90;;;;;;5127528;27;20407;-65
2022/12/25 13:52:15;;;;;;;28.77;17.83;;;9.10;99.90;;;;;;5122147;27;20038;-67
2022/12/25 13:55:11;;;;;;;27.98;16.58;;;9.10;99.90;;;;;;5129287;27;20156;-64
2022/12/25 13:57:40;;;;;;;27.38;17.67;;;9.00;99.90;;;;;;5097415;27;20043;-65
2022/12/25 14:00:15;;;;;;;32.47;17.85;;;9.00;99.90;;;;;;5110360;28;20043;-65
2022/12/25 14:02:41;;;;;;;30.23;18.13;;;8.70;99.90;;;;;;5091772;27;20043;-64
2022/12/25 14:05:25;;;;;;;29.52;17.13;;;9.00;99.90;;;;;;5093507;27;20114;-65
2022/12/25 14:07:53;;;;;;;29.63;16.48;;;9.00;99.90;;;;;;5107855;27;20039;-65
2022/12/25 14:10:21;;;;;;;28.58;16.10;;;9.00;99.90;;;;;;5118866;27;20050;-65
2022/12/25 14:12:49;;;;;;;27.88;15.68;;;9.00;99.90;;;;;;5122142;27;20039;-65
2022/12/25 14:15:20;;;;;;;28.50;15.75;;;9.00;99.90;;;;;;5116501;27;20504;-64
2022/12/25 14:17:46;;;;;;;26.42;15.23;;;9.00;99.90;;;;;;5103822;27;20043;-65
2022/12/25 14:20:29;;;;;;;25.48;15.57;;;9.00;99.90;;;;;;5106828;28;20485;-66
2022/12/25 14:22:57;;;;;;;32.80;15.73;;;9.00;99.90;;;;;;5120940;27;20042;-64
2022/12/25 14:25:33;;;;;;;22.73;14.48;;;9.00;99.90;;;;;;5122041;28;20034;-65
2022/12/25 14:28:03;;;;;;;24.98;14.27;;;9.00;99.90;;;;;;5124033;27;20079;-67
2022/12/25 14:30:29;;;;;;;27.95;15.80;;;9.00;99.90;;;;;;5098622;28;20126;-65
2022/12/25 14:32:55;;;;;;;29.15;15.98;;;9.00;99.90;;;;;;5089232;22;20140;-82
2022/12/25 14:35:22;;;;;;;28.00;15.68;;;9.00;99.90;;;;;;5028550;28;20041;-81